Aviation Digital Data Service (ADDS)

Output produced by METARs form (1646 UTC 20 January 2019)
found at http://www.aviationweather.gov/metar/data/
 
RKSG 201556Z 28003KT 7SM CLR M05/M13 A3030 RMK AO2A SLP265 T10491130 $
TAF RKSG 201100Z 2011/2117 32010KT 9000 HZ SKC 510006 QNH3021INS 
     BECMG 2021/2022 19005KT 8000 HZ FEW020 SCT035 BKN040 QNH3020INS 
     TEMPO 2102/2108 27015G25KT 510004 
     BECMG 2109/2110 27010G15KT 8000 HZ SKC QNH3020INS TX04/2105Z TNM06/2021Z
       
RKTU 201600Z 24002KT CAVOK M06/M16 Q1026
TAF RKTU 201100Z 2012/2118 27006KT 9999 SCT030 TNM08/2021Z TX05/2106Z
       
RKTN 201600Z 29009KT CAVOK M01/M14 Q1023
TAF RKTN 201100Z 2012/2118 31008G18KT 9999 FEW040 TNM03/2021Z TX09/2106Z
       
RKPK 201600Z 34011KT CAVOK 00/M15 Q1022
TAF RKPK 201100Z 2012/2118 33008KT 9999 SCT030 TNM02/2021Z TX11/2106Z
       
RKSS 201600Z 00000KT CAVOK M08/M18 Q1026 NOSIG
TAF RKSS 201100Z 2012/2118 32009KT CAVOK TNM08/2022Z TX05/2106Z 
     BECMG 2020/2021 22007KT 9999 FEW010 SCT020 
     BECMG 2102/2103 28016G30KT 
     TEMPO 2108/2110 30010KT CAVOK 
     BECMG 2111/2112 30007KT CAVOK
       
RKSI 201630Z 31003KT CAVOK M05/M12 Q1025 NOSIG
TAF RKSI 201100Z 2012/2118 33013G25KT CAVOK TNM04/2021Z TX05/2105Z 
     BECMG 2019/2020 26010KT 9999 SCT030 
     TEMPO 2022/2102 BKN030 
     BECMG 2102/2103 31015G27KT CAVOK 
     BECMG 2111/2112 32010KT
       
RKPC 201600Z 33013KT 290V360 9999 BKN030 04/M04 Q1027 NOSIG
TAF RKPC 201100Z 2012/2118 34015G25KT 9999 BKN030 TN03/2021Z TX07/2106Z 
     BECMG 2100/2101 29012KT SCT030
       
RKJK 201556Z AUTO 35009KT 10SM CLR M02/M06 A3032 RMK AO2 SLP272 T10221064 $
TAF RKJK 201500Z 2015/2121 33009KT 9999 SCT035 QNH3018INS 
     BECMG 2101/2102 27015G20KT 9999 SCT035 QNH3011INS 
     BECMG 2107/2108 28010G15KT 9999 BKN035 600352 QNH3008INS TX06/2106Z
TNM04/2021Z
       
RKSO 201555Z 24003KT 7SM CLR M06/M14 A3030 RMK AO2A SLP265
TAF RKSO 201100Z 2011/2117 33009KT 9999 SKC QNH3017INS WND VRB06KT AFT 2016 
     BECMG 2020/2021 VRB06KT 9999 SCT030 BKN040 620403 QNH3004INS WND 26012KT
AFT 2102 
     TEMPO 2103/2107 26015G20KT 
     BECMG 2106/2107 27009KT 9999 SKC QNH3003INS TX02/2105Z TNM08/2022Z
       
RKSM 201600Z 06001KT 9999 SKC M05/M16 A3030
TAF RKSM 201100Z 2012/2118 30008KT 9999 SCT030 
     BECMG 2103/2104 33008G18KT 9999 SCT030 TNM08/2021Z TX05/2106Z
       
RKNY 201600Z 26019KT CAVOK M01/M19 Q1019 NOSIG
TAF RKNY 201100Z 2012/2118 26012KT CAVOK TNM03/2021Z TX07/2106Z 
     BECMG 2023/2024 27015G25KT 
     BECMG 2102/2103 27020G35KT 
     BECMG 2108/2109 27015G25KT